Ride Results

Eden Creek 1 (22-02-2010)
Ride distance: 80.0 km

Outcomes - Eden Creek 1 (22-02-2010)
Division No. of Entries Retired / DNE Completed Withdrawn Ineligible V/O Percentage Completed
HW 7 - 3 - - 4 42.86%
MW 14 - 10 - - 4 71.43%
LW 5 - 3 - - 2 60.00%
JN 8 - 8 - - - 100.00%
Totals 34 - 24 - - 10 70.59%
Results - Eden Creek 1 (22-02-2010)
No. Rider Horse Place Time Leg Speeds Total
Km/Hr
H/R bpm
Heavyweight
036 Paul Lengronne Cherox Kariim 1 7:01:00 15.7, 9.5 11.83 30, 44, 53 (Avg:48)
018 Allyson Taylor Caleskhan Kasmeer 2 (BC) 7:51:00 12.9, 9.0 10.57 31, 37, 43 (Avg:40)
027 Maurice Gray Gydanska 3 8:33:00 11.8, 8.3 9.71 39, 40, 42 (Avg:41)
035 Matthew Gadsby Sundust Frisco Heart Rate L2 0:00:00 15.7, 9.2 - 39, 49, 68 (Avg:58)
05 Will Standfield Stanpark Harry Blue Heart Rate L2 0:00:00 12.1, 10.6 - 37, 55, 72 (Avg:63)
015 Noel Weismann Hirstglen Louisville Back L2 0:00:00 13.4, 10.0 - 32, 42, 59 (Avg:50)
09 Dan Winkel Shardell Azeem Lame L2 0:00:00 13.1, 10.9 - 36, 46, 58 (Avg:52)
Middleweight
04 Debra McQueen Armani Thunder 1 5:53:00 16.3, 12.5 14.11 44, 51, 60 (Avg:55)
034 Camille Champagne-Bargenquast Sasam 2 (BC) 6:07:00 15.7, 11.9 13.57 28, 42, 46 (Avg:44)
08 Karen Winkel Xanadu Barabbous 3 6:57:00 15.6, 9.7 11.94 35, 53, 58 (Avg:55)
021 David Urquhart Wybalena Lodge Wrangler 4 7:02:00 13.2, 10.7 11.80 33, 44, 52 (Avg:48)
029 Ray Vlad Mithras Darius 5 7:30:00 11.3, 10.8 11.07 38, 33, 47 (Avg:40)
023 Rosemary Hull Ejen Park Azira Rose 6 7:50:00 11.3, 9.9 10.60 35, 41, 42 (Avg:41)
024 Ken Moir Cameo Helmzman 6 7:50:00 11.3, 9.9 10.60 38, 43, 53 (Avg:48)
012 Tracey Hutchinson Junabee Park Shamekha 8 7:52:00 11.5, 9.7 10.55 41, 41, 52 (Avg:46)
025 Stephen Gray Raaward Samaya 9 8:33:00 11.8, 8.3 9.71 38, 46, 50 (Avg:48)
020 Bridget Nottle Justine te 10 8:38:00 10.3, 8.9 9.61 42, 39, 52 (Avg:45)
019 Pierre DeWit Bandit te Metabolics moderate L2 0:00:00 10.3, 8.9 - 38, 50, 60 (Avg:55)
07 Tony Standfield Stanpark Rupert Metabolics severe L2 0:00:00 15.2, 15.1 - 31, 47, 80 (Avg:63)
06 Steve Clibborn Midu Kaleisha Lame L1 0:00:00 12.1 - 29, 43 (Avg:43)
033 Alan Roberts Donnybrook Lame L1 0:00:00 10.3 - 30, 46 (Avg:46)
Lightweight
01 Clare Fleming Birramalee Queen of Hearts 1 (BC) 6:07:00 16.7, 11.5 13.57 38, 44, 43 (Avg:43)
026 Emma Masters Die Kinder Lunar Eclipse 2 7:02:00 13.1, 10.7 11.80 36, 44, 59 (Avg:51)
014 Libby Jones Beau Val Feodora 3 7:57:00 11.5, 9.5 10.44 37, 43, 48 (Avg:45)
032 Samantha Mijik Tristram Nicholas Lame L2 0:00:00 10.3, 10.1 - 31, 55, 56 (Avg:55)
030 Kim Ruehe Allyndah Silver Soverign Heart Rate L2 0:00:00 13.2, 10.3 - 43, 49, 64 (Avg:56)
Junior
03 Billie Standfield Stanpark Meg 1 (BC) 5:27:00 15.2, 15.1 15.23 37, 46, 51 (Avg:48)
02 Hannah Houlden Googabilla Lodge Starlight 2 5:53:00 16.3, 12.5 14.11 35, 49, 58 (Avg:53)
016 Sharn Brooker Hirstglen Texas Rose 3 7:15:00 13.4, 10.0 11.45 38, 43, 45 (Avg:44)
017 Samantha Brooker Hirstglen Zeus 3 7:15:00 13.2, 10.1 11.45 37, 44, 47 (Avg:45)
031 Dylan Keys Elfar Sword O'Fire 5 7:33:00 12.7, 9.7 10.99 32, 39, 44 (Avg:41)
011 Jenna Watts Bogan Bushy 6 7:50:00 12.2, 9.4 10.60 38, 51, 54 (Avg:52)
010 Louise Watts Sandine Carlingford 6 7:50:00 12.2, 9.4 10.60 36, 45, 57 (Avg:51)
013 India Hutchinson Riverdance Kahlua 8 7:57:00 11.5, 9.5 10.44 33, 41, 59 (Avg:50)